Time;durP1;ratioP1;P1;durP2;ratioP2;P2;SDS_P1;SDS_P2;PMS_P1;PMS_P2;Temp;Humidity;BMP_temperature;BMP_pressure;BME280_temperature;BME280_humidity;BME280_pressure;Samples;Min_cycle;Max_cycle;Signal;HPM_P1;HPM_P2
2023/09/27 00:02:24;;;;;;;5.07;4.43;;;15.40;80.00;;;17.16;56.46;98056.16;5024181;28;20049;-70
2023/09/27 00:04:52;;;;;;;5.35;4.82;;;15.30;80.50;;;17.13;56.57;98053.84;5024029;28;20302;-70
2023/09/27 00:07:19;;;;;;;6.03;4.55;;;15.30;80.70;;;17.11;56.52;98058.56;5014965;28;20048;-70
2023/09/27 00:09:48;;;;;;;5.00;3.80;;;15.30;80.70;;;17.11;56.59;98066.66;5024073;28;20037;-70
2023/09/27 00:12:15;;;;;;;4.93;3.95;;;15.30;80.80;;;17.09;56.76;98056.06;5003414;28;20041;-70
2023/09/27 00:14:43;;;;;;;4.82;4.15;;;15.20;80.90;;;17.06;56.88;98052.94;5020456;28;20038;-70
2023/09/27 00:17:11;;;;;;;5.93;4.13;;;15.20;80.90;;;17.03;56.83;98054.16;5022310;28;20064;-70
2023/09/27 00:19:39;;;;;;;4.93;4.28;;;15.20;81.00;;;17.02;56.83;98054.34;5023751;28;20038;-70
2023/09/27 00:22:09;;;;;;;4.72;4.00;;;15.20;81.10;;;17.00;56.56;98051.00;5004465;28;20049;-70
2023/09/27 00:24:38;;;;;;;4.63;4.13;;;15.10;80.80;;;16.99;56.67;98046.69;5003281;28;20046;-70
2023/09/27 00:27:07;;;;;;;5.10;4.47;;;15.10;80.30;;;16.97;56.25;98046.03;5010479;28;20045;-70
2023/09/27 00:29:34;;;;;;;4.90;4.40;;;15.20;80.30;;;16.95;56.72;98053.47;4991446;28;20068;-70
2023/09/27 00:32:03;;;;;;;5.30;4.60;;;15.10;80.60;;;16.88;56.65;98050.69;5022482;28;20049;-69
2023/09/27 00:34:31;;;;;;;4.93;4.43;;;15.00;80.90;;;16.86;56.73;98050.88;5020150;28;20034;-69
2023/09/27 00:37:00;;;;;;;5.32;4.53;;;15.00;80.70;;;16.85;56.71;98049.22;5007132;28;20042;-69
2023/09/27 00:39:27;;;;;;;4.78;3.83;;;15.10;80.50;;;16.80;56.72;98043.56;5006280;28;20046;-70
2023/09/27 00:41:55;;;;;;;6.68;4.47;;;15.00;80.60;;;16.78;56.93;98047.47;5013458;28;20045;-70
2023/09/27 00:44:23;;;;;;;6.78;4.85;;;14.90;80.90;;;16.77;56.81;98048.47;4994249;28;20049;-69
2023/09/27 00:46:51;;;;;;;5.50;4.85;;;14.90;80.70;;;16.74;56.73;98055.06;5009531;28;20037;-70
2023/09/27 00:49:19;;;;;;;9.27;4.22;;;14.90;80.80;;;16.74;57.04;98057.75;5010295;28;20054;-70
2023/09/27 00:51:47;;;;;;;5.47;4.97;;;14.90;80.90;;;16.70;57.43;98051.94;5002192;28;20045;-70
2023/09/27 00:54:15;;;;;;;5.97;4.50;;;14.90;81.50;;;16.70;57.41;98051.09;4980017;28;20050;-70
2023/09/27 00:56:44;;;;;;;4.82;4.20;;;14.90;81.80;;;16.70;57.14;98056.47;4988615;28;20045;-69
2023/09/27 00:59:12;;;;;;;7.72;4.70;;;14.90;82.10;;;16.68;57.50;98053.97;5021223;28;20046;-69
2023/09/27 01:01:41;;;;;;;6.15;5.15;;;14.90;82.40;;;16.68;57.78;98053.16;4996558;28;20054;-69
2023/09/27 01:04:09;;;;;;;5.88;4.50;;;14.80;82.20;;;16.67;57.43;98062.22;4999988;28;20069;-69
2023/09/27 01:06:37;;;;;;;6.68;5.15;;;14.80;82.00;;;16.64;57.53;98058.06;5022512;28;20413;-69
2023/09/27 01:09:04;;;;;;;5.68;4.28;;;14.80;82.30;;;16.64;57.73;98057.25;4988391;28;20429;-69
2023/09/27 01:11:33;;;;;;;5.00;4.50;;;14.90;82.20;;;16.62;57.63;98054.75;4986939;28;20512;-69
2023/09/27 01:14:01;;;;;;;5.93;4.68;;;14.80;82.20;;;16.61;57.71;98053.06;4977342;28;20041;-70
2023/09/27 01:16:28;;;;;;;5.13;4.50;;;14.80;82.60;;;16.59;57.72;98055.09;5022616;28;20045;-70
2023/09/27 01:19:02;;;;;;;5.60;4.20;;;14.80;82.50;;;16.58;57.63;98048.09;5013189;28;20045;-69
2023/09/27 01:21:31;;;;;;;5.80;5.20;;;14.80;82.80;;;16.56;57.83;98047.44;4998242;28;20053;-70
2023/09/27 01:23:59;;;;;;;5.88;4.50;;;14.70;82.80;;;16.54;57.68;98061.06;5012411;28;20527;-70
2023/09/27 01:26:30;;;;;;;5.60;4.18;;;14.70;82.60;;;16.53;57.88;98053.19;5011440;28;20037;-69
2023/09/27 01:28:58;;;;;;;6.45;4.43;;;14.70;82.50;;;16.52;57.81;98055.03;4986788;28;20054;-69
2023/09/27 01:31:26;;;;;;;5.45;4.45;;;14.70;82.30;;;16.52;57.65;98060.41;4993963;28;20042;-69
2023/09/27 01:33:53;;;;;;;5.57;4.60;;;14.70;82.20;;;16.49;57.73;98060.78;5018497;28;20046;-69
2023/09/27 01:36:22;;;;;;;5.03;4.18;;;14.70;82.40;;;16.47;57.75;98057.47;5011453;28;20512;-69
2023/09/27 01:38:49;;;;;;;5.65;5.10;;;14.60;82.70;;;16.49;57.86;98055.41;5022780;28;20037;-69
2023/09/27 01:41:18;;;;;;;6.55;5.28;;;14.70;82.80;;;16.49;58.06;98054.59;5002540;28;20072;-69
2023/09/27 01:43:45;;;;;;;5.97;4.10;;;14.70;82.50;;;16.48;57.87;98053.75;5003452;28;20050;-70
2023/09/27 01:46:13;;;;;;;5.72;4.57;;;14.70;82.30;;;16.48;57.82;98051.06;5002991;28;20046;-69
2023/09/27 01:48:41;;;;;;;5.35;4.55;;;14.70;82.20;;;16.47;57.67;98052.09;5012574;28;20285;-69
2023/09/27 01:51:09;;;;;;;6.95;4.28;;;14.70;82.10;;;16.45;57.95;98054.13;5011566;28;20045;-70
2023/09/27 01:53:36;;;;;;;6.55;4.82;;;14.70;82.20;;;16.43;57.64;98061.53;5002094;28;20602;-69
2023/09/27 01:56:04;;;;;;;6.10;5.50;;;14.60;82.20;;;16.43;57.82;98064.22;4992694;28;20054;-69
2023/09/27 01:58:32;;;;;;;7.03;5.13;;;14.60;82.60;;;16.43;57.94;98074.97;5004550;28;20045;-69
2023/09/27 02:00:59;;;;;;;6.18;5.25;;;14.60;82.70;;;16.41;57.67;98074.34;5020820;28;20054;-70
2023/09/27 02:03:27;;;;;;;6.68;4.57;;;14.60;82.40;;;16.40;58.13;98071.84;5001232;28;20081;-70
2023/09/27 02:05:57;;;;;;;9.20;4.93;;;14.60;82.50;;;16.40;57.97;98069.16;5001092;28;20513;-70
2023/09/27 02:08:25;;;;;;;6.38;5.78;;;14.60;82.30;;;16.37;58.28;98077.59;5003466;28;20064;-70
2023/09/27 02:10:52;;;;;;;5.72;4.93;;;14.60;83.30;;;16.38;58.29;98069.34;5004949;28;20045;-69
2023/09/27 02:13:20;;;;;;;5.90;5.03;;;14.60;83.40;;;16.37;58.42;98065.00;5020443;28;20034;-70
2023/09/27 02:15:48;;;;;;;7.38;5.82;;;14.60;83.30;;;16.37;58.19;98067.69;5002834;28;20497;-70
2023/09/27 02:18:16;;;;;;;5.85;5.03;;;14.60;82.60;;;16.38;58.33;98072.03;5010432;28;20057;-69
2023/09/27 02:20:45;;;;;;;5.65;4.93;;;14.60;82.40;;;16.37;58.03;98069.53;4989080;28;20049;-69
2023/09/27 02:23:13;;;;;;;5.78;5.18;;;14.60;82.60;;;16.32;57.83;98067.41;5003123;28;20049;-69
2023/09/27 02:25:41;;;;;;;6.68;5.15;;;14.50;82.60;;;16.29;57.82;98065.94;5018469;28;20473;-69
2023/09/27 02:28:10;;;;;;;8.88;5.10;;;14.50;82.60;;;16.27;57.88;98061.78;5009235;28;20049;-70
2023/09/27 02:30:38;;;;;;;6.97;4.95;;;14.40;82.70;;;16.23;58.06;98061.31;5018719;28;20301;-69
2023/09/27 02:33:05;;;;;;;5.43;4.85;;;14.40;83.00;;;16.20;57.83;98067.03;5005531;28;20045;-70
2023/09/27 02:35:36;;;;;;;5.57;4.95;;;14.30;82.70;;;16.16;58.09;98073.81;5010559;28;20038;-69
2023/09/27 02:38:04;;;;;;;4.93;4.28;;;14.30;83.50;;;16.13;58.37;98074.19;5012144;28;20060;-69
2023/09/27 02:40:32;;;;;;;6.00;5.40;;;14.30;83.70;;;16.11;58.30;98073.53;5012522;28;20050;-69
2023/09/27 02:42:59;;;;;;;6.70;5.20;;;14.30;83.50;;;16.09;58.19;98071.06;5022035;28;20042;-69
2023/09/27 02:45:27;;;;;;;5.88;4.50;;;14.30;83.20;;;16.06;58.06;98060.66;5006317;28;20094;-70
2023/09/27 02:47:55;;;;;;;6.35;5.28;;;14.20;83.30;;;16.02;58.30;98056.69;5025488;28;20072;-69
2023/09/27 02:50:23;;;;;;;6.93;5.03;;;14.10;83.40;;;16.00;58.37;98064.09;5023495;28;20046;-69
2023/09/27 02:52:51;;;;;;;4.95;4.45;;;14.10;83.80;;;15.97;58.54;98064.47;5021982;28;20041;-69
2023/09/27 02:55:19;;;;;;;6.45;5.18;;;14.10;84.80;;;15.95;58.63;98058.44;5004835;28;20054;-69
2023/09/27 02:57:50;;;;;;;6.13;4.72;;;14.10;84.70;;;15.93;58.70;98055.09;5025431;28;20100;-69
2023/09/27 03:00:22;;;;;;;5.90;4.82;;;14.10;84.50;;;15.93;58.66;98052.44;5005485;28;20048;-70
2023/09/27 03:02:49;;;;;;;7.95;5.03;;;14.10;84.30;;;15.92;58.46;98048.91;5021864;28;20046;-69
2023/09/27 03:05:17;;;;;;;6.25;5.00;;;14.10;84.10;;;15.90;58.45;98042.91;5004086;28;20066;-69
2023/09/27 03:07:45;;;;;;;6.55;4.88;;;14.10;83.90;;;15.88;58.47;98042.25;5022533;28;20049;-70
2023/09/27 03:10:15;;;;;;;6.38;4.03;;;14.00;83.50;;;15.87;58.32;98051.31;5006388;28;20041;-69
2023/09/27 03:12:47;;;;;;;5.65;4.45;;;14.00;83.30;;;15.85;58.66;98050.66;5008281;28;20046;-69
2023/09/27 03:15:15;;;;;;;7.95;4.85;;;14.00;83.60;;;15.83;58.34;98041.97;4990618;28;20045;-70
2023/09/27 03:17:44;;;;;;;5.50;4.95;;;14.00;83.60;;;15.81;58.75;98046.69;4991987;28;20049;-69
2023/09/27 03:20:19;;;;;;;5.75;4.85;;;14.00;83.70;;;15.79;58.93;98040.66;4991471;28;20056;-69
2023/09/27 03:22:48;;;;;;;4.78;4.20;;;14.00;85.10;;;15.81;58.96;98044.00;4990044;28;20042;-69
2023/09/27 03:25:17;;;;;;;6.50;4.82;;;14.00;85.00;;;15.81;58.92;98038.63;5004391;28;20137;-69
2023/09/27 03:27:46;;;;;;;6.18;4.57;;;14.00;84.40;;;15.83;58.83;98041.13;5014740;28;20437;-69
2023/09/27 03:30:14;;;;;;;6.20;4.25;;;14.00;84.50;;;15.80;59.27;98034.31;5006683;28;20129;-69
2023/09/27 03:32:43;;;;;;;5.57;4.63;;;14.00;85.20;;;15.80;59.63;98046.88;4984014;28;20057;-69
2023/09/27 03:35:10;;;;;;;6.25;5.65;;;14.00;86.10;;;15.79;59.53;98046.03;5012559;28;20050;-69
2023/09/27 03:37:39;;;;;;;6.15;4.50;;;14.00;86.30;;;15.79;59.33;98046.03;5013264;28;20045;-69
2023/09/27 03:40:13;;;;;;;6.82;4.70;;;14.00;85.80;;;15.78;59.51;98047.06;5000137;28;20042;-69
2023/09/27 03:42:45;;;;;;;5.82;4.60;;;14.00;85.70;;;15.77;59.23;98055.31;4988305;28;20050;-69
2023/09/27 03:45:14;;;;;;;6.55;4.75;;;14.00;85.80;;;15.77;59.33;98064.19;5020970;28;20413;-68
2023/09/27 03:47:45;;;;;;;5.82;4.78;;;13.90;85.60;;;15.75;59.38;98056.31;4999669;28;20042;-68
2023/09/27 03:50:17;;;;;;;5.05;4.28;;;13.90;85.60;;;15.74;59.29;98070.75;5003195;28;20054;-68
2023/09/27 03:52:45;;;;;;;6.43;4.60;;;13.90;85.00;;;15.74;59.23;98056.50;4982617;28;20120;-69
2023/09/27 03:55:13;;;;;;;5.47;4.43;;;13.90;84.80;;;15.71;59.19;98065.72;5013770;28;20045;-68
2023/09/27 03:57:41;;;;;;;6.90;4.82;;;13.90;84.40;;;15.70;59.19;98068.59;5012916;28;20049;-68
2023/09/27 04:00:13;;;;;;;6.13;4.28;;;13.90;84.20;;;15.68;59.18;98068.78;4983748;28;20518;-68
2023/09/27 04:02:43;;;;;;;6.97;4.90;;;13.90;84.40;;;15.67;58.94;98067.09;5005784;28;20053;-69
2023/09/27 04:05:12;;;;;;;4.90;4.40;;;13.80;84.10;;;15.65;58.97;98060.25;4997057;28;20057;-69
2023/09/27 04:07:40;;;;;;;8.07;4.78;;;13.80;83.90;;;15.60;58.86;98060.78;5002686;28;20049;-69
2023/09/27 04:10:08;;;;;;;6.53;4.47;;;13.80;84.40;;;15.58;58.73;98062.84;5003301;28;20056;-69
2023/09/27 04:12:36;;;;;;;5.47;4.40;;;13.70;84.20;;;15.56;58.77;98072.91;4989432;28;20057;-69
2023/09/27 04:15:08;;;;;;;6.22;4.20;;;13.70;84.00;;;15.52;58.85;98071.63;5023617;28;20448;-69
2023/09/27 04:17:37;;;;;;;6.28;5.07;;;13.60;84.10;;;15.48;59.03;98073.00;5021269;28;20041;-68
2023/09/27 04:20:14;;;;;;;6.53;4.78;;;13.60;84.50;;;15.44;58.88;98071.69;5003341;28;20049;-69
2023/09/27 04:22:47;;;;;;;5.57;4.75;;;13.50;84.30;;;15.45;58.61;98073.34;4996329;28;20371;-69
2023/09/27 04:25:17;;;;;;;5.05;3.92;;;13.60;84.20;;;15.43;58.79;98073.56;5019992;28;20509;-69
2023/09/27 04:27:49;;;;;;;5.75;4.57;;;13.60;83.60;;;15.41;58.44;98070.22;5012191;28;20057;-69
2023/09/27 04:30:21;;;;;;;7.55;4.53;;;13.50;83.50;;;15.34;58.80;98077.31;5020183;28;20053;-69
2023/09/27 04:32:50;;;;;;;5.45;4.40;;;13.40;84.30;;;15.31;58.67;98075.00;4996139;28;20052;-69
2023/09/27 04:35:19;;;;;;;5.45;4.78;;;13.40;84.70;;;15.28;59.06;98083.41;5019326;28;20498;-69
2023/09/27 04:37:48;;;;;;;6.28;4.55;;;13.40;85.10;;;15.26;59.04;98083.59;5006133;28;20060;-69
2023/09/27 04:40:17;;;;;;;5.30;4.80;;;13.40;84.70;;;15.24;58.87;98088.31;5005922;28;20044;-69
2023/09/27 04:42:46;;;;;;;6.82;4.90;;;13.40;85.00;;;15.23;59.36;98089.31;4994671;28;20046;-69
2023/09/27 04:45:14;;;;;;;6.32;5.00;;;13.40;84.70;;;15.22;58.89;98097.50;4998740;28;20149;-69
2023/09/27 04:47:44;;;;;;;7.20;5.47;;;13.30;85.00;;;15.20;59.10;98102.22;5004931;28;20060;-69
2023/09/27 04:50:13;;;;;;;7.22;5.80;;;13.40;84.60;;;15.18;59.18;98112.31;5023369;28;20046;-69
2023/09/27 04:52:42;;;;;;;9.30;5.63;;;13.30;85.10;;;15.16;59.12;98118.69;5002766;28;20041;-69
2023/09/27 04:55:10;;;;;;;5.13;4.60;;;13.30;85.70;;;15.16;59.26;98110.66;4992359;28;20052;-69
2023/09/27 04:57:38;;;;;;;5.95;5.13;;;13.30;85.30;;;15.13;59.23;98112.84;5003254;28;20505;-69
2023/09/27 05:00:13;;;;;;;7.05;5.30;;;13.30;85.40;;;15.12;59.38;98111.16;5018974;28;20053;-69
2023/09/27 05:02:41;;;;;;;6.88;5.25;;;13.20;85.60;;;15.11;59.41;98109.50;5022193;28;20055;-69
2023/09/27 05:05:09;;;;;;;7.78;4.63;;;13.20;86.00;;;15.09;59.23;98117.72;5005309;28;20045;-69
2023/09/27 05:07:38;;;;;;;6.03;5.30;;;13.20;85.50;;;15.06;59.44;98128.84;5020183;28;20567;-69
2023/09/27 05:10:07;;;;;;;6.25;5.65;;;13.20;86.10;;;15.04;59.77;98133.50;5019470;28;20096;-69
2023/09/27 05:12:35;;;;;;;5.90;4.90;;;13.20;85.90;;;15.04;59.61;98140.72;5003729;28;20049;-70
2023/09/27 05:15:03;;;;;;;5.80;5.18;;;13.10;86.20;;;15.01;59.63;98146.47;5022551;28;20045;-69
2023/09/27 05:17:30;;;;;;;6.60;4.60;;;13.20;86.40;;;14.99;59.74;98145.81;5021507;28;20060;-69
2023/09/27 05:19:58;;;;;;;8.52;5.70;;;13.10;87.10;;;14.95;59.69;98139.97;5019581;28;20045;-70
2023/09/27 05:22:26;;;;;;;7.25;5.47;;;13.00;88.10;;;14.91;59.92;98146.69;5019679;28;20050;-70
2023/09/27 05:24:53;;;;;;;5.45;4.95;;;13.00;87.50;;;14.90;59.90;98136.97;5022676;28;20045;-70
2023/09/27 05:27:21;;;;;;;7.55;4.68;;;12.90;88.20;;;14.87;60.15;98137.31;5022248;28;20412;-69
2023/09/27 05:29:48;;;;;;;6.47;5.80;;;12.90;88.20;;;14.86;59.88;98128.44;5022741;28;20045;-69
2023/09/27 05:32:16;;;;;;;16.27;5.75;;;13.00;87.80;;;14.87;59.94;98129.25;5022606;28;20493;-69
2023/09/27 05:34:44;;;;;;;9.05;5.07;;;13.00;87.70;;;14.86;60.15;98130.28;4986288;28;20065;-69
2023/09/27 05:37:11;;;;;;;7.05;5.22;;;13.00;87.70;;;14.86;60.08;98133.78;5004969;28;20053;-69
2023/09/27 05:39:39;;;;;;;5.35;4.30;;;13.00;88.00;;;14.87;60.14;98129.25;5020421;28;20056;-68
2023/09/27 05:42:07;;;;;;;7.30;5.07;;;13.00;88.00;;;14.88;60.36;98131.78;5019443;28;20057;-69
2023/09/27 05:44:35;;;;;;;6.95;4.40;;;13.00;88.00;;;14.89;60.29;98132.63;5020442;28;20045;-68
2023/09/27 05:47:02;;;;;;;6.28;4.90;;;13.10;88.00;;;14.90;60.24;98126.25;5012671;28;20528;-67
2023/09/27 05:49:31;;;;;;;6.40;4.90;;;13.10;87.60;;;14.91;60.26;98136.78;5004141;28;20049;-67
2023/09/27 05:51:59;;;;;;;6.03;5.03;;;13.10;87.40;;;14.92;60.36;98137.63;5018912;28;20058;-68
2023/09/27 05:54:26;;;;;;;4.93;4.43;;;13.10;87.40;;;14.93;60.27;98133.94;5001645;28;20513;-68
2023/09/27 05:56:55;;;;;;;5.22;4.72;;;13.10;87.60;;;14.95;60.44;98131.91;5022205;28;20046;-68
2023/09/27 05:59:26;;;;;;;6.13;4.75;;;13.10;88.00;;;14.96;60.58;98131.72;5022393;28;20038;-68
2023/09/27 06:01:53;;;;;;;5.72;4.97;;;13.20;87.70;;;15.00;60.49;98132.19;5011321;28;20094;-68
2023/09/27 06:04:22;;;;;;;7.68;5.38;;;13.20;87.30;;;15.05;60.45;98137.06;5019200;28;20042;-67
2023/09/27 06:06:50;;;;;;;7.63;4.90;;;13.30;87.40;;;15.09;60.68;98141.03;5021719;28;20042;-67
2023/09/27 06:09:18;;;;;;;5.43;4.85;;;13.40;87.40;;;15.13;60.67;98142.34;5022443;28;20049;-67
2023/09/27 06:11:46;;;;;;;6.88;5.10;;;13.50;87.70;;;15.18;61.07;98139.13;5022916;28;20053;-67
2023/09/27 06:14:14;;;;;;;6.32;4.78;;;13.50;88.00;;;15.23;60.66;98142.13;5023047;28;20053;-67
2023/09/27 06:16:44;;;;;;;5.88;5.15;;;13.60;87.50;;;15.28;60.87;98153.16;4996947;28;20040;-67
2023/09/27 06:19:12;;;;;;;6.22;4.95;;;13.60;87.30;;;15.33;60.94;98148.91;5005413;28;20034;-68
2023/09/27 06:21:40;;;;;;;6.63;5.63;;;13.70;88.30;;;15.38;61.04;98147.53;5023902;28;20053;-67
2023/09/27 06:24:08;;;;;;;6.13;5.20;;;13.80;87.90;;;15.44;60.88;98152.19;5025754;28;20052;-67
2023/09/27 06:26:36;;;;;;;7.00;5.25;;;13.80;87.60;;;15.49;61.10;98147.09;5024481;28;20045;-66
2023/09/27 06:29:03;;;;;;;5.65;5.15;;;13.90;87.60;;;15.53;60.79;98153.78;5022256;28;20058;-68
2023/09/27 06:31:32;;;;;;;5.70;4.72;;;13.90;87.00;;;15.56;60.81;98156.09;5022503;28;20057;-67
2023/09/27 06:34:00;;;;;;;6.25;4.82;;;14.00;86.80;;;15.58;60.81;98154.06;5025565;28;20042;-67
2023/09/27 06:36:29;;;;;;;5.10;4.60;;;14.00;86.70;;;15.62;60.96;98152.69;5025521;28;20393;-70
2023/09/27 06:38:57;;;;;;;7.90;5.47;;;14.00;86.50;;;15.66;60.85;98159.34;4997493;28;20053;-70
2023/09/27 06:41:25;;;;;;;6.38;5.07;;;14.10;86.70;;;15.70;60.89;98163.38;5022290;28;20042;-70
2023/09/27 06:43:53;;;;;;;7.30;5.45;;;14.20;86.80;;;15.74;61.14;98159.34;5007458;28;20108;-69
2023/09/27 06:46:22;;;;;;;6.60;5.75;;;14.20;86.80;;;15.77;61.16;98158.13;5025108;28;20053;-69
2023/09/27 06:48:54;;;;;;;9.48;5.40;;;14.20;86.80;;;15.80;61.11;98164.97;5005769;28;20429;-70
2023/09/27 06:51:22;;;;;;;7.95;5.43;;;14.20;86.60;;;15.83;61.12;98157.41;5021871;28;20076;-69
2023/09/27 06:53:50;;;;;;;8.07;6.93;;;14.30;86.70;;;15.86;61.09;98159.75;5013546;28;20064;-70
2023/09/27 06:56:18;;;;;;;10.32;6.95;;;14.30;87.00;;;15.90;61.05;98158.34;5025050;28;20419;-69
2023/09/27 06:58:46;;;;;;;9.18;7.22;;;14.40;87.10;;;15.93;61.23;98149.91;5006007;28;20258;-69
2023/09/27 07:01:14;;;;;;;9.90;8.30;;;14.40;87.50;;;15.98;61.16;98157.44;5004513;28;20085;-69
2023/09/27 07:03:41;;;;;;;9.10;7.78;;;14.40;87.50;;;16.01;61.26;98157.06;5009363;28;20060;-69
2023/09/27 07:06:09;;;;;;;10.10;7.10;;;14.40;87.60;;;16.04;61.17;98154.00;5019708;28;20450;-70
2023/09/27 07:08:37;;;;;;;10.40;7.38;;;14.50;87.40;;;16.08;61.05;98146.44;5021955;28;20500;-70
2023/09/27 07:11:08;;;;;;;8.38;7.32;;;14.50;87.10;;;16.11;61.27;98154.97;5025239;28;20049;-70
2023/09/27 07:13:39;;;;;;;13.25;7.43;;;14.60;87.20;;;16.15;61.55;98147.38;5022953;28;20527;-70
2023/09/27 07:16:29;;;;;;;8.55;6.15;;;14.70;87.20;;;16.17;61.79;98150.69;5004141;28;20361;-70
2023/09/27 07:19:03;;;;;;;6.50;5.25;;;14.80;88.60;;;16.24;61.80;98151.59;5024691;28;20420;-70
2023/09/27 07:21:30;;;;;;;8.93;6.45;;;14.90;87.40;;;16.33;61.78;98160.44;5024364;28;20049;-70
2023/09/27 07:23:58;;;;;;;6.97;5.95;;;15.00;86.70;;;16.40;61.79;98152.44;5021549;28;20420;-69
2023/09/27 07:26:26;;;;;;;6.43;5.63;;;15.10;86.80;;;16.47;61.94;98156.06;5021129;28;20049;-70
2023/09/27 07:28:54;;;;;;;9.02;6.15;;;15.20;86.50;;;16.53;61.69;98161.50;4995868;28;20053;-69
2023/09/27 07:31:23;;;;;;;9.07;6.47;;;15.20;86.60;;;16.58;61.72;98152.91;5006439;28;20050;-70
2023/09/27 07:33:52;;;;;;;7.72;5.70;;;15.30;86.50;;;16.64;61.75;98154.00;5005491;28;20413;-70
2023/09/27 07:36:21;;;;;;;9.40;5.38;;;15.30;86.30;;;16.69;61.70;98162.34;5023677;28;20442;-70
2023/09/27 07:38:48;;;;;;;7.07;6.00;;;15.40;86.30;;;16.74;61.79;98151.84;5021272;28;20197;-70
2023/09/27 07:41:16;;;;;;;8.95;5.75;;;15.40;86.10;;;16.76;62.00;98144.44;5021132;28;20042;-70
2023/09/27 07:43:44;;;;;;;11.18;6.60;;;15.50;86.20;;;16.83;61.85;98153.47;5004436;28;20527;-70
2023/09/27 07:46:12;;;;;;;10.13;7.00;;;15.60;86.10;;;16.89;62.09;98157.25;5023822;28;20045;-70
2023/09/27 07:48:42;;;;;;;12.98;6.65;;;15.70;86.20;;;16.95;62.01;98155.66;5023997;28;20045;-70
2023/09/27 07:51:21;;;;;;;12.40;7.07;;;15.70;85.90;;;17.00;62.02;98158.59;5021128;28;20516;-69
2023/09/27 07:53:50;;;;;;;13.70;6.72;;;15.70;86.10;;;17.05;61.94;98156.19;5005549;28;20050;-69
2023/09/27 07:56:22;;;;;;;16.48;7.40;;;15.80;85.80;;;17.10;62.11;98151.91;5014632;28;20037;-68
2023/09/27 07:58:52;;;;;;;11.55;7.78;;;15.90;85.70;;;17.16;61.83;98153.00;5005338;28;20044;-69
2023/09/27 08:01:22;;;;;;;11.25;6.78;;;15.90;85.60;;;17.22;61.98;98163.00;5003566;28;20045;-70
2023/09/27 08:03:55;;;;;;;14.43;7.35;;;16.00;85.50;;;17.26;61.92;98152.69;5004809;28;20046;-69
2023/09/27 08:06:23;;;;;;;12.02;6.93;;;16.00;85.80;;;17.31;61.92;98148.41;5007314;28;20041;-69
2023/09/27 08:08:51;;;;;;;11.73;7.32;;;16.10;85.60;;;17.38;61.92;98155.69;5022382;28;20042;-70
2023/09/27 08:11:20;;;;;;;15.73;7.63;;;16.10;85.60;;;17.44;62.05;98158.44;5020731;28;20050;-69
2023/09/27 08:13:47;;;;;;;12.73;8.13;;;16.20;86.00;;;17.49;62.10;98145.25;5021507;28;20050;-69
2023/09/27 08:16:16;;;;;;;10.73;8.00;;;16.30;85.80;;;17.55;62.06;98140.94;5023298;28;20041;-70
2023/09/27 08:18:44;;;;;;;9.90;7.43;;;16.30;85.90;;;17.61;62.07;98142.03;5023191;28;20037;-69
2023/09/27 08:21:11;;;;;;;9.27;8.38;;;16.40;85.70;;;17.66;62.15;98139.56;5020582;28;20048;-69
2023/09/27 08:23:40;;;;;;;8.75;7.22;;;16.40;85.80;;;17.73;61.96;98137.78;5020211;28;20046;-69
2023/09/27 08:26:12;;;;;;;11.27;8.57;;;16.50;85.70;;;17.77;61.98;98139.03;5012122;28;20046;-69
2023/09/27 08:28:40;;;;;;;11.48;8.57;;;16.60;85.50;;;17.83;62.00;98134.75;5020382;28;20049;-69
2023/09/27 08:31:09;;;;;;;11.05;7.90;;;16.60;85.50;;;17.88;61.86;98135.84;5012675;28;20048;-69
2023/09/27 08:33:37;;;;;;;11.00;7.53;;;16.70;85.30;;;17.94;61.81;98136.09;5020000;28;20049;-69
2023/09/27 08:36:05;;;;;;;10.18;8.35;;;16.70;85.20;;;17.99;61.71;98128.25;5022963;28;20430;-69
2023/09/27 08:38:33;;;;;;;8.52;7.63;;;16.80;85.00;;;18.02;61.69;98128.69;5023343;28;20046;-69
2023/09/27 08:41:03;;;;;;;12.05;8.95;;;16.80;84.70;;;18.08;61.87;98119.00;5020719;28;20056;-69
2023/09/27 08:43:33;;;;;;;10.10;8.70;;;16.90;85.10;;;18.14;61.68;98123.59;5020109;28;20046;-69
2023/09/27 08:46:02;;;;;;;7.25;6.47;;;16.90;84.80;;;18.20;61.67;98121.97;4995797;28;20392;-69
2023/09/27 08:48:31;;;;;;;8.40;7.30;;;17.00;84.10;;;18.26;61.44;98116.63;5006081;28;20408;-70
2023/09/27 08:51:04;;;;;;;8.40;7.28;;;17.00;84.10;;;18.31;61.33;98116.03;5003652;28;20050;-69
2023/09/27 08:53:34;;;;;;;9.32;7.63;;;17.10;84.10;;;18.36;61.46;98116.25;5019957;28;20532;-69
2023/09/27 08:56:04;;;;;;;12.18;8.60;;;17.20;84.00;;;18.40;61.36;98109.44;5021709;28;20049;-69
2023/09/27 08:58:34;;;;;;;12.82;9.27;;;17.20;84.00;;;18.45;61.24;98111.53;5023578;28;20052;-69
2023/09/27 09:01:05;;;;;;;11.95;9.35;;;17.20;83.90;;;18.50;61.23;98100.97;5003506;28;20497;-70
2023/09/27 09:03:36;;;;;;;11.02;9.05;;;17.30;83.80;;;18.54;61.26;98104.09;5002630;28;20038;-69
2023/09/27 09:06:10;;;;;;;11.98;9.95;;;17.30;83.90;;;18.58;61.14;98097.28;5004680;28;22586;-70
2023/09/27 09:08:42;;;;;;;11.98;9.68;;;17.40;83.60;;;18.62;61.10;98095.84;5023146;28;20037;-69
2023/09/27 09:11:15;;;;;;;10.27;8.55;;;17.40;83.30;;;18.65;60.93;98090.88;5011903;28;20034;-70
2023/09/27 09:14:04;;;;;;;10.50;8.40;;;17.50;83.30;;;18.72;60.97;98095.47;4990740;28;20041;-70
2023/09/27 09:16:44;;;;;;;8.27;7.43;;;17.50;83.00;;;18.80;60.92;98089.91;5014348;28;20061;-70
2023/09/27 09:19:24;;;;;;;10.93;6.93;;;17.60;83.00;;;18.88;60.56;98092.41;4979712;28;20046;-70
2023/09/27 09:22:12;;;;;;;10.88;7.28;;;17.60;82.20;;;18.94;60.35;98085.38;4991663;28;20382;-69
2023/09/27 09:24:43;;;;;;;6.78;5.63;;;17.70;81.80;;;19.00;59.89;98093.50;5001862;28;20049;-69
2023/09/27 09:27:15;;;;;;;6.68;5.30;;;17.80;81.20;;;19.05;59.76;98087.47;4993849;28;20046;-70
2023/09/27 09:29:45;;;;;;;;;;;17.90;80.60;;;19.13;59.82;98084.59;4990346;28;20057;-69
2023/09/27 09:32:18;;;;;;;6.82;5.75;;;17.90;78.70;;;19.24;58.88;98085.84;4993066;28;19921;-70
2023/09/27 09:34:48;;;;;;;6.03;4.97;;;18.00;78.90;;;19.26;58.85;98073.81;5018091;28;20038;-70
2023/09/27 09:37:31;;;;;;;7.97;5.38;;;18.00;78.30;;;19.32;58.63;98077.56;5001191;28;20038;-70
2023/09/27 09:40:16;;;;;;;6.60;4.88;;;18.10;78.00;;;19.38;58.34;98070.50;5020596;28;20494;-70
2023/09/27 09:42:47;;;;;;;12.38;5.00;;;18.20;76.50;;;19.46;58.17;98067.59;5005714;28;20044;-70
2023/09/27 09:45:15;;;;;;;8.07;4.85;;;18.30;76.80;;;19.54;57.65;98070.09;4995599;28;20045;-70
2023/09/27 09:47:44;;;;;;;6.22;4.60;;;18.40;76.40;;;19.58;57.73;98063.22;5023143;28;20045;-70
2023/09/27 09:50:16;;;;;;;7.78;4.78;;;18.50;76.20;;;19.64;57.29;98059.69;5026546;28;20052;-70
2023/09/27 09:52:54;;;;;;;6.65;4.40;;;18.50;75.80;;;19.71;57.25;98058.84;5009693;28;20397;-70
2023/09/27 09:55:26;;;;;;;5.57;4.38;;;18.60;75.10;;;19.78;57.38;98059.72;5015958;28;20050;-70
2023/09/27 09:58:36;;;;;;;5.25;4.57;;;18.60;75.30;;;19.84;57.16;98053.47;4997114;28;20042;-69
2023/09/27 10:01:04;;;;;;;8.20;5.55;;;18.70;75.20;;;19.91;56.61;98057.00;5025102;28;20042;-70
2023/09/27 10:03:33;;;;;;;7.78;4.88;;;18.70;75.20;;;19.97;56.73;98056.16;5026380;28;20068;-70
2023/09/27 10:06:04;;;;;;;7.80;5.55;;;18.80;74.60;;;20.02;56.55;98045.50;5002961;28;20050;-70
2023/09/27 10:08:38;;;;;;;6.65;4.95;;;18.80;75.00;;;20.10;56.62;98044.44;5022933;28;20046;-70
2023/09/27 10:11:06;;;;;;;6.82;4.75;;;19.00;74.20;;;20.17;56.29;98049.84;5008413;28;20050;-70
2023/09/27 10:13:36;;;;;;;8.23;4.80;;;19.00;73.80;;;20.19;56.24;98053.16;5008470;28;20053;-71
2023/09/27 10:16:04;;;;;;;7.57;5.03;;;19.10;73.50;;;20.20;55.94;98047.56;5014189;28;20046;-70
2023/09/27 10:18:36;;;;;;;6.65;4.78;;;19.10;73.30;;;20.24;55.93;98042.56;5022749;28;20052;-70
2023/09/27 10:21:10;;;;;;;8.02;4.93;;;19.10;73.00;;;20.28;55.56;98032.97;5024313;28;20105;-71
2023/09/27 10:23:47;;;;;;;7.80;5.35;;;19.10;72.70;;;20.35;55.50;98041.03;5008726;28;20508;-70
2023/09/27 10:26:26;;;;;;;5.95;4.72;;;19.20;72.00;;;20.41;55.10;98023.94;5022276;28;20049;-70
2023/09/27 10:29:18;;;;;;;5.95;4.93;;;19.20;71.90;;;20.48;55.23;98026.66;4997090;28;20053;-71